createdAt,value
2022-09-30T00:00:58.081Z,3.97
2022-09-30T00:03:25.111Z,4.22
2022-09-30T00:06:07.619Z,4.30
2022-09-30T00:08:37.408Z,3.30
2022-09-30T00:11:08.787Z,4.00
2022-09-30T00:13:37.360Z,5.22
2022-09-30T00:16:05.271Z,3.75
2022-09-30T00:18:32.925Z,3.90
2022-09-30T00:20:59.905Z,3.92
2022-09-30T00:23:26.813Z,3.83
2022-09-30T00:26:02.007Z,4.50
2022-09-30T00:28:29.955Z,7.40
2022-09-30T00:31:05.396Z,5.20
2022-09-30T00:33:32.473Z,3.83
2022-09-30T00:35:59.707Z,4.80
2022-09-30T00:38:26.732Z,4.78
2022-09-30T00:40:54.084Z,4.10
2022-09-30T00:43:41.268Z,3.83
2022-09-30T00:46:42.278Z,3.75
2022-09-30T00:49:20.691Z,4.60
2022-09-30T00:51:56.178Z,5.50
2022-09-30T00:54:29.543Z,4.68
2022-09-30T00:57:00.442Z,5.50
2022-09-30T00:59:43.176Z,5.38
2022-09-30T01:02:13.009Z,4.50
2022-09-30T01:04:41.430Z,9.63
2022-09-30T01:07:10.744Z,3.97
2022-09-30T01:09:40.537Z,4.88
2022-09-30T01:12:20.908Z,4.72
2022-09-30T01:14:53.154Z,5.00
2022-09-30T01:17:26.044Z,3.00
2022-09-30T01:20:17.006Z,5.82
2022-09-30T01:23:11.683Z,5.43
2022-09-30T01:25:41.251Z,4.13
2022-09-30T01:28:45.575Z,4.03
2022-09-30T01:31:34.736Z,4.97
2022-09-30T01:34:10.129Z,4.32
2022-09-30T01:36:43.291Z,4.25
2022-09-30T01:39:34.960Z,5.20
2022-09-30T01:42:10.520Z,5.07
2022-09-30T01:44:58.690Z,4.07
2022-09-30T01:47:40.291Z,5.43
2022-09-30T01:50:19.463Z,6.28
2022-09-30T01:52:49.464Z,4.72
2022-09-30T01:55:29.435Z,4.60
2022-09-30T01:58:12.057Z,4.57
2022-09-30T02:00:42.665Z,4.22
2022-09-30T02:03:16.354Z,5.18
2022-09-30T02:05:46.961Z,5.53
2022-09-30T02:08:31.580Z,5.38
2022-09-30T02:11:05.127Z,5.03
2022-09-30T02:13:54.161Z,5.25
2022-09-30T02:16:27.130Z,5.47
2022-09-30T02:18:58.802Z,5.18
2022-09-30T02:21:31.930Z,6.32
2022-09-30T02:24:05.712Z,6.57
2022-09-30T02:26:37.599Z,5.30
2022-09-30T02:29:10.868Z,5.47
2022-09-30T02:31:41.734Z,5.30
2022-09-30T02:34:16.686Z,6.05
2022-09-30T02:36:54.601Z,6.03
2022-09-30T02:39:28.647Z,5.57
2022-09-30T02:42:03.311Z,6.82
2022-09-30T02:44:31.826Z,6.40
2022-09-30T02:47:13.136Z,6.05
2022-09-30T02:49:49.787Z,6.55
2022-09-30T02:52:34.925Z,5.90
2022-09-30T02:55:09.102Z,6.43
2022-09-30T02:57:42.455Z,5.80
2022-09-30T03:00:13.027Z,6.38
2022-09-30T03:02:41.641Z,6.82
2022-09-30T03:05:09.962Z,6.40
2022-09-30T03:07:37.695Z,6.50
2022-09-30T03:10:15.685Z,4.93
2022-09-30T03:15:30.470Z,5.50
2022-09-30T03:18:03.328Z,4.75
2022-09-30T03:20:52.989Z,6.18
2022-09-30T03:23:30.751Z,5.78
2022-09-30T03:26:13.563Z,6.00
2022-09-30T03:28:58.825Z,6.57
2022-09-30T03:31:36.526Z,4.95
2022-09-30T03:34:21.971Z,5.40
2022-09-30T03:37:36.688Z,5.07
2022-09-30T03:40:11.723Z,6.20
2022-09-30T03:42:45.898Z,8.40
2022-09-30T03:45:39.220Z,7.55
2022-09-30T03:48:09.513Z,5.43
2022-09-30T03:50:37.953Z,6.07
2022-09-30T03:53:10.819Z,6.00
2022-09-30T03:55:47.848Z,5.70
2022-09-30T03:58:16.047Z,5.90
2022-09-30T04:00:48.661Z,6.15
2022-09-30T04:03:16.575Z,6.32
2022-09-30T04:05:43.814Z,5.78
2022-09-30T04:08:10.719Z,6.43
2022-09-30T04:10:40.087Z,6.93
2022-09-30T04:13:06.860Z,6.55
2022-09-30T04:15:33.999Z,6.97
2022-09-30T04:18:00.776Z,6.85
2022-09-30T04:20:27.515Z,7.70
2022-09-30T04:22:57.402Z,7.78
2022-09-30T04:25:24.163Z,6.50
2022-09-30T04:27:50.812Z,6.75
2022-09-30T04:30:21.283Z,7.15
2022-09-30T04:32:50.549Z,8.73
2022-09-30T04:35:17.390Z,7.18
2022-09-30T04:37:44.590Z,7.53
2022-09-30T04:40:13.067Z,7.13
2022-09-30T04:42:42.913Z,7.40
2022-09-30T04:45:11.452Z,6.38
2022-09-30T04:47:38.331Z,8.13
2022-09-30T04:50:06.112Z,7.00
2022-09-30T04:52:32.775Z,7.28
2022-09-30T04:54:59.556Z,7.43
2022-09-30T04:57:27.144Z,10.85
2022-09-30T04:59:53.836Z,9.15
2022-09-30T05:02:20.562Z,7.07
2022-09-30T05:04:47.365Z,7.72
2022-09-30T05:07:14.078Z,8.68
2022-09-30T05:09:40.881Z,8.63
2022-09-30T05:12:08.163Z,9.98
2022-09-30T05:14:34.981Z,7.95
2022-09-30T05:17:02.134Z,8.57
2022-09-30T05:19:29.940Z,8.00
2022-09-30T05:21:56.746Z,8.23
2022-09-30T05:24:23.991Z,8.50
2022-09-30T05:26:50.609Z,9.85
2022-09-30T05:29:17.380Z,10.13
2022-09-30T05:31:44.224Z,8.80
2022-09-30T05:34:10.987Z,9.32
2022-09-30T05:36:37.835Z,11.10
2022-09-30T05:39:05.492Z,9.93
2022-09-30T05:41:32.734Z,9.88
2022-09-30T05:44:01.032Z,9.30
2022-09-30T05:46:28.507Z,10.50
2022-09-30T05:48:55.413Z,11.85
2022-09-30T05:51:22.597Z,12.07
2022-09-30T05:53:49.262Z,11.43
2022-09-30T05:56:16.154Z,10.77
2022-09-30T05:58:42.890Z,10.15
2022-09-30T06:01:13.828Z,11.15
2022-09-30T06:03:42.943Z,13.27
2022-09-30T06:06:11.248Z,11.73
2022-09-30T06:08:38.365Z,11.48
2022-09-30T06:11:13.196Z,10.23
2022-09-30T06:13:41.623Z,10.80
2022-09-30T06:16:09.877Z,12.68
2022-09-30T06:18:39.069Z,11.48
2022-09-30T06:21:05.894Z,12.10
2022-09-30T06:23:35.112Z,11.52
2022-09-30T06:26:03.500Z,11.98
2022-09-30T06:28:30.345Z,12.27
2022-09-30T06:30:57.195Z,13.80
2022-09-30T06:33:23.934Z,15.02
2022-09-30T06:35:50.984Z,13.23
2022-09-30T06:38:17.750Z,15.13
2022-09-30T06:40:49.501Z,12.43
2022-09-30T06:43:19.800Z,15.05
2022-09-30T06:45:48.234Z,15.25
2022-09-30T06:48:20.216Z,13.43
2022-09-30T06:51:01.362Z,14.05
2022-09-30T06:53:29.663Z,16.15
2022-09-30T06:55:57.522Z,19.63
2022-09-30T06:58:25.460Z,14.98
2022-09-30T07:01:06.452Z,15.18
2022-09-30T07:03:35.394Z,12.90
2022-09-30T07:06:05.276Z,14.73
2022-09-30T07:08:34.427Z,14.55
2022-09-30T07:11:11.922Z,14.95
2022-09-30T07:13:39.593Z,14.55
2022-09-30T07:16:06.553Z,13.60
2022-09-30T07:18:33.348Z,13.98
2022-09-30T07:21:18.826Z,12.90
2022-09-30T07:24:04.374Z,13.15
2022-09-30T07:26:34.389Z,12.35
2022-09-30T07:29:01.326Z,12.80
2022-09-30T07:31:33.738Z,12.32
2022-09-30T07:34:07.336Z,15.57
2022-09-30T07:36:37.791Z,12.40
2022-09-30T07:39:08.524Z,12.50
2022-09-30T07:41:39.162Z,12.88
2022-09-30T07:44:10.202Z,13.45
2022-09-30T07:46:40.319Z,12.95
2022-09-30T07:49:12.757Z,13.57
2022-09-30T07:51:41.792Z,14.40
2022-09-30T07:54:12.635Z,12.55
2022-09-30T07:59:31.661Z,12.23
2022-09-30T08:01:58.547Z,13.35
2022-09-30T08:04:27.228Z,14.48
2022-09-30T08:06:57.391Z,14.20
2022-09-30T08:09:26.779Z,15.70
2022-09-30T08:11:54.170Z,13.77
2022-09-30T08:14:24.125Z,12.68
2022-09-30T08:16:51.554Z,13.80
2022-09-30T08:19:21.224Z,13.80
2022-09-30T08:21:48.729Z,13.73
2022-09-30T08:24:15.612Z,14.13
2022-09-30T08:26:42.677Z,13.65
2022-09-30T08:29:17.005Z,13.90
2022-09-30T08:31:48.135Z,12.18
2022-09-30T08:34:15.306Z,12.38
2022-09-30T08:36:42.080Z,13.30
2022-09-30T08:39:11.030Z,13.90
2022-09-30T08:41:43.881Z,12.13
2022-09-30T08:44:31.482Z,17.27
2022-09-30T08:47:46.043Z,12.40
2022-09-30T08:50:36.802Z,11.77
2022-09-30T08:53:09.509Z,12.68
2022-09-30T08:55:43.150Z,12.32
2022-09-30T08:58:18.517Z,10.65
2022-09-30T09:00:45.396Z,11.60
2022-09-30T09:03:14.397Z,10.55
2022-09-30T09:06:18.050Z,10.75
2022-09-30T09:09:10.595Z,10.98
2022-09-30T09:12:03.122Z,9.68
2022-09-30T09:14:54.908Z,10.25
2022-09-30T09:18:21.505Z,10.63
2022-09-30T09:20:59.978Z,9.02
2022-09-30T09:23:30.983Z,11.48
2022-09-30T09:25:58.340Z,7.82
2022-09-30T09:28:30.910Z,10.15
2022-09-30T09:30:59.696Z,10.15
2022-09-30T09:33:30.593Z,9.15
2022-09-30T09:36:25.329Z,10.00
2022-09-30T09:39:06.066Z,7.93
2022-09-30T09:41:55.999Z,8.05
2022-09-30T09:44:53.678Z,8.15
2022-09-30T09:47:20.695Z,6.85
2022-09-30T09:49:57.730Z,6.85
2022-09-30T09:52:46.747Z,5.07
2022-09-30T09:55:18.011Z,4.70
2022-09-30T10:00:44.138Z,4.63
2022-09-30T10:03:21.781Z,4.45
2022-09-30T10:08:36.678Z,4.15
2022-09-30T10:11:17.606Z,4.35
2022-09-30T10:13:45.730Z,5.80
2022-09-30T10:16:32.529Z,5.78
2022-09-30T10:19:00.181Z,5.80
2022-09-30T10:21:29.122Z,7.40
2022-09-30T10:23:57.708Z,6.57
2022-09-30T10:29:01.536Z,4.78
2022-09-30T10:31:35.940Z,6.47
2022-09-30T10:34:18.382Z,4.18
2022-09-30T10:36:46.571Z,3.20
2022-09-30T10:39:30.114Z,2.75
2022-09-30T10:42:03.342Z,5.28
2022-09-30T10:44:30.673Z,3.50
2022-09-30T10:47:03.299Z,3.70
2022-09-30T10:49:42.459Z,3.72
2022-09-30T10:52:20.115Z,3.67
2022-09-30T10:54:56.597Z,2.92
2022-09-30T10:57:29.883Z,3.40
2022-09-30T11:00:10.295Z,2.03
2022-09-30T11:02:43.590Z,3.28
2022-09-30T11:05:42.730Z,3.47
2022-09-30T11:08:29.238Z,2.83
2022-09-30T11:11:18.159Z,2.30
2022-09-30T11:14:10.075Z,4.55
2022-09-30T11:16:58.121Z,2.70
2022-09-30T11:19:33.050Z,3.28
2022-09-30T11:22:28.165Z,3.20
2022-09-30T11:24:57.191Z,3.08
2022-09-30T11:27:49.600Z,3.55
2022-09-30T11:30:44.292Z,3.80
2022-09-30T11:33:16.956Z,2.83
2022-09-30T11:35:57.611Z,3.30
2022-09-30T11:38:49.378Z,4.07
2022-09-30T11:41:29.095Z,3.10
2022-09-30T11:44:21.747Z,3.08
2022-09-30T11:47:08.762Z,3.40
2022-09-30T11:49:53.551Z,2.35
2022-09-30T11:52:42.248Z,3.50
2022-09-30T11:55:46.645Z,2.33
2022-09-30T12:01:33.186Z,3.10
2022-09-30T12:04:13.059Z,3.83
2022-09-30T12:06:44.229Z,4.03
2022-09-30T12:12:00.292Z,4.00
2022-09-30T12:15:05.810Z,3.05
2022-09-30T12:17:54.946Z,3.85
2022-09-30T12:20:39.448Z,3.88
2022-09-30T12:23:18.060Z,3.85
2022-09-30T12:25:55.936Z,3.78
2022-09-30T12:28:53.415Z,3.85
2022-09-30T12:31:36.153Z,2.78
2022-09-30T12:34:25.469Z,2.67
2022-09-30T12:37:11.357Z,3.25
2022-09-30T12:39:54.624Z,3.72
2022-09-30T12:42:55.285Z,4.95
2022-09-30T12:45:31.354Z,3.03
2022-09-30T12:48:00.155Z,3.65
2022-09-30T12:50:30.183Z,5.15
2022-09-30T12:52:58.116Z,3.70
2022-09-30T12:55:31.218Z,4.45
2022-09-30T12:58:02.257Z,3.28
2022-09-30T13:00:32.952Z,4.35
2022-09-30T13:03:04.409Z,5.05
2022-09-30T13:05:31.002Z,6.65
2022-09-30T13:08:04.017Z,2.42
2022-09-30T13:10:32.717Z,2.70
2022-09-30T13:13:23.738Z,3.80
2022-09-30T13:15:56.278Z,4.18
2022-09-30T13:18:27.014Z,2.95
2022-09-30T13:21:06.740Z,3.45
2022-09-30T13:23:36.398Z,3.85
2022-09-30T13:26:07.333Z,3.15
2022-09-30T13:28:38.443Z,4.32
2022-09-30T13:31:21.276Z,2.67
2022-09-30T13:34:10.618Z,3.38
2022-09-30T13:36:44.397Z,3.58
2022-09-30T13:39:32.012Z,4.45
2022-09-30T13:42:27.097Z,3.65
2022-09-30T13:45:47.518Z,2.22
2022-09-30T13:48:43.150Z,3.00
2022-09-30T13:51:16.529Z,4.15
2022-09-30T13:53:51.978Z,3.40
2022-09-30T13:56:26.232Z,4.40
2022-09-30T13:59:18.367Z,3.58
2022-09-30T14:02:05.557Z,6.30
2022-09-30T14:04:52.003Z,7.38
2022-09-30T14:07:30.834Z,6.00
2022-09-30T14:10:19.314Z,2.80
2022-09-30T14:13:19.605Z,4.15
2022-09-30T14:16:22.461Z,5.20
2022-09-30T14:19:11.011Z,3.28
2022-09-30T14:21:57.858Z,4.00
2022-09-30T14:24:35.116Z,5.13
2022-09-30T14:27:21.661Z,5.47
2022-09-30T14:29:51.201Z,4.95
2022-09-30T14:32:31.439Z,5.40
2022-09-30T14:35:00.432Z,7.05
2022-09-30T14:37:30.488Z,6.38
2022-09-30T14:39:57.524Z,6.30
2022-09-30T14:42:45.537Z,6.07
2022-09-30T14:45:21.639Z,4.10
2022-09-30T14:47:51.289Z,4.80
2022-09-30T14:50:22.891Z,4.30
2022-09-30T14:52:55.739Z,5.05
2022-09-30T14:55:31.949Z,4.60
2022-09-30T14:58:21.603Z,4.95
2022-09-30T15:01:31.615Z,5.03
2022-09-30T15:04:14.560Z,5.60
2022-09-30T15:06:46.614Z,5.85
2022-09-30T15:09:28.195Z,6.22
2022-09-30T15:11:55.644Z,4.15
2022-09-30T15:14:24.444Z,4.30
2022-09-30T15:16:54.375Z,5.15
2022-09-30T15:19:22.636Z,3.47
2022-09-30T15:21:52.039Z,5.35
2022-09-30T15:24:21.340Z,3.50
2022-09-30T15:26:49.327Z,6.72
2022-09-30T15:29:17.126Z,4.88
2022-09-30T15:31:59.624Z,4.95
2022-09-30T15:34:28.852Z,6.38
2022-09-30T15:37:00.356Z,5.68
2022-09-30T15:39:50.826Z,5.90
2022-09-30T15:42:38.670Z,5.65
2022-09-30T15:45:35.599Z,5.15
2022-09-30T15:48:25.746Z,4.03
2022-09-30T15:50:56.011Z,3.40
2022-09-30T15:53:26.664Z,4.13
2022-09-30T15:55:56.277Z,3.80
2022-09-30T15:58:38.195Z,3.50
2022-09-30T16:01:22.094Z,3.53
2022-09-30T16:06:37.738Z,4.55
2022-09-30T16:09:08.681Z,3.25
2022-09-30T16:11:46.882Z,4.63
2022-09-30T16:14:30.137Z,5.13
2022-09-30T16:17:02.450Z,4.20
2022-09-30T16:19:30.994Z,5.22
2022-09-30T16:22:01.783Z,5.72
2022-09-30T16:24:28.920Z,6.25
2022-09-30T16:26:56.736Z,5.10
2022-09-30T16:29:28.505Z,3.78
2022-09-30T16:31:56.753Z,5.57
2022-09-30T16:34:26.017Z,5.53
2022-09-30T16:37:29.357Z,5.22
2022-09-30T16:40:05.544Z,3.90
2022-09-30T16:42:32.960Z,5.60
2022-09-30T16:45:00.973Z,4.70
2022-09-30T16:47:27.727Z,5.60
2022-09-30T16:49:54.364Z,4.10
2022-09-30T16:52:21.089Z,6.15
2022-09-30T16:54:47.802Z,4.55
2022-09-30T16:57:15.824Z,4.30
2022-09-30T16:59:42.702Z,4.32
2022-09-30T17:02:13.900Z,3.83
2022-09-30T17:04:40.914Z,4.22
2022-09-30T17:07:11.810Z,5.93
2022-09-30T17:09:39.494Z,4.47
2022-09-30T17:12:06.198Z,7.00
2022-09-30T17:14:33.273Z,5.20
2022-09-30T17:17:00.027Z,5.68
2022-09-30T17:19:30.072Z,4.40
2022-09-30T17:21:56.740Z,5.78
2022-09-30T17:24:23.637Z,5.40
2022-09-30T17:26:50.844Z,5.30
2022-09-30T17:29:31.807Z,6.25
2022-09-30T17:31:59.380Z,8.27
2022-09-30T17:34:27.896Z,8.55
2022-09-30T17:36:56.161Z,7.25
2022-09-30T17:39:23.022Z,6.00
2022-09-30T17:42:08.194Z,7.53
2022-09-30T17:44:34.938Z,6.93
2022-09-30T17:47:02.002Z,6.90
2022-09-30T17:49:35.608Z,8.05
2022-09-30T17:52:03.119Z,8.60
2022-09-30T17:54:31.442Z,8.95
2022-09-30T17:56:58.645Z,8.45
2022-09-30T17:59:26.972Z,7.07
2022-09-30T18:01:56.369Z,10.52
2022-09-30T18:04:25.882Z,6.50
2022-09-30T18:06:57.280Z,7.03
2022-09-30T18:09:42.317Z,8.45
2022-09-30T18:12:10.001Z,9.48
2022-09-30T18:14:38.186Z,8.00
2022-09-30T18:17:06.479Z,9.43
2022-09-30T18:19:35.419Z,6.95
2022-09-30T18:22:02.865Z,8.18
2022-09-30T18:24:48.247Z,9.88
2022-09-30T18:27:15.187Z,8.32
2022-09-30T18:29:42.114Z,8.57
2022-09-30T18:32:09.155Z,9.85
2022-09-30T18:34:35.901Z,9.95
2022-09-30T18:37:06.816Z,11.55
2022-09-30T18:39:39.932Z,9.05
2022-09-30T18:42:06.595Z,10.98
2022-09-30T18:44:37.531Z,12.18
2022-09-30T18:47:05.533Z,11.48
2022-09-30T18:49:32.276Z,11.32
2022-09-30T18:51:59.711Z,12.88
2022-09-30T18:54:26.422Z,12.80
2022-09-30T18:56:53.050Z,13.07
2022-09-30T18:59:23.282Z,16.02
2022-09-30T19:01:51.281Z,15.85
2022-09-30T19:04:18.225Z,13.15
2022-09-30T19:06:47.608Z,13.35
2022-09-30T19:09:16.493Z,14.32
2022-09-30T19:11:44.802Z,12.13
2022-09-30T19:14:12.878Z,11.88
2022-09-30T19:16:40.580Z,15.32
2022-09-30T19:19:10.385Z,12.13
2022-09-30T19:21:38.456Z,13.77
2022-09-30T19:24:07.232Z,15.95
2022-09-30T19:26:36.314Z,14.38
2022-09-30T19:29:05.309Z,14.05
2022-09-30T19:31:33.976Z,16.00
2022-09-30T19:34:02.065Z,16.77
2022-09-30T19:36:32.628Z,14.18
2022-09-30T19:39:11.902Z,14.23
2022-09-30T19:41:40.183Z,15.15
2022-09-30T19:44:07.049Z,14.50
2022-09-30T19:46:33.829Z,14.57
2022-09-30T19:49:00.684Z,16.48
2022-09-30T19:51:30.650Z,14.52
2022-09-30T19:54:06.313Z,15.85
2022-09-30T19:56:35.866Z,17.27
2022-09-30T19:59:03.784Z,18.58
2022-09-30T20:01:34.562Z,15.55
2022-09-30T20:04:05.478Z,16.70
2022-09-30T20:06:33.731Z,17.00
2022-09-30T20:09:04.052Z,18.08
2022-09-30T20:11:36.101Z,17.95
2022-09-30T20:14:24.662Z,18.20
2022-09-30T20:16:51.753Z,17.42
2022-09-30T20:19:19.633Z,20.50
2022-09-30T20:21:47.043Z,18.77
2022-09-30T20:24:18.146Z,17.52
2022-09-30T20:26:46.059Z,15.57
2022-09-30T20:29:13.256Z,19.88
2022-09-30T20:31:42.469Z,16.90
2022-09-30T20:34:14.395Z,18.77
2022-09-30T20:36:41.795Z,19.70
2022-09-30T20:39:09.056Z,17.83
2022-09-30T20:41:37.675Z,17.65
2022-09-30T20:44:13.839Z,18.10
2022-09-30T20:46:41.698Z,16.05
2022-09-30T20:49:09.407Z,16.75
2022-09-30T20:51:36.477Z,18.02
2022-09-30T20:54:03.378Z,16.58
2022-09-30T20:56:44.501Z,17.40
2022-09-30T20:59:17.769Z,16.38
2022-09-30T21:01:44.507Z,17.90
2022-09-30T21:04:11.343Z,15.63
2022-09-30T21:06:38.110Z,15.77
2022-09-30T21:09:05.416Z,17.13
2022-09-30T21:11:32.848Z,17.63
2022-09-30T21:14:00.040Z,16.25
2022-09-30T21:16:26.926Z,17.50
2022-09-30T21:18:53.805Z,19.33
2022-09-30T21:21:22.849Z,18.65
2022-09-30T21:23:53.146Z,17.58
2022-09-30T21:26:20.851Z,18.88
2022-09-30T21:28:49.645Z,17.48
2022-09-30T21:31:27.382Z,20.10
2022-09-30T21:33:56.623Z,16.05
2022-09-30T21:36:24.504Z,16.63
2022-09-30T21:38:51.999Z,17.38
2022-09-30T21:41:19.846Z,17.88
2022-09-30T21:43:47.154Z,18.45
2022-09-30T21:46:15.562Z,18.40
2022-09-30T21:48:42.607Z,17.35
2022-09-30T21:51:10.322Z,20.67
2022-09-30T21:53:38.778Z,17.25
2022-09-30T21:56:06.474Z,20.30
2022-09-30T21:58:33.843Z,16.48
2022-09-30T22:01:03.557Z,19.65
2022-09-30T22:03:37.157Z,19.67
2022-09-30T22:06:08.533Z,18.15
2022-09-30T22:08:40.120Z,20.27
2022-09-30T22:13:34.914Z,18.67
2022-09-30T22:16:04.792Z,19.27
2022-09-30T22:18:32.229Z,16.45
2022-09-30T22:21:04.595Z,18.33
2022-09-30T22:23:31.399Z,16.90
2022-09-30T22:25:58.379Z,19.00
2022-09-30T22:28:25.346Z,18.98
2022-09-30T22:30:52.134Z,18.58
2022-09-30T22:33:37.449Z,20.08
2022-09-30T22:36:22.704Z,17.40
2022-09-30T22:38:49.577Z,17.83
2022-09-30T22:41:17.835Z,17.83
2022-09-30T22:43:44.612Z,18.63
2022-09-30T22:46:11.454Z,18.25
2022-09-30T22:48:38.403Z,16.65
2022-09-30T22:51:05.290Z,18.58
2022-09-30T22:53:32.031Z,19.67
2022-09-30T22:56:02.977Z,16.83
2022-09-30T22:58:29.621Z,15.93
2022-09-30T23:00:58.651Z,17.52
2022-09-30T23:03:25.902Z,18.98
2022-09-30T23:05:53.326Z,15.75
2022-09-30T23:08:20.085Z,16.42
2022-09-30T23:10:50.678Z,17.83
2022-09-30T23:13:20.080Z,16.90
2022-09-30T23:15:50.677Z,16.65
2022-09-30T23:18:17.631Z,16.02
2022-09-30T23:20:55.191Z,15.05
2022-09-30T23:23:22.010Z,14.35
2022-09-30T23:25:48.668Z,15.23
2022-09-30T23:28:15.412Z,16.50
2022-09-30T23:30:42.153Z,15.43
2022-09-30T23:33:12.360Z,14.88
2022-09-30T23:35:45.418Z,14.98
2022-09-30T23:38:12.066Z,13.65
2022-09-30T23:40:43.786Z,13.18
2022-09-30T23:45:37.455Z,12.43
2022-09-30T23:48:04.486Z,13.88
2022-09-30T23:50:32.406Z,14.18
2022-09-30T23:52:59.625Z,12.43
2022-09-30T23:55:28.418Z,13.75
2022-09-30T23:57:57.762Z,11.77
